sensor_id;sensor_type;location;lat;lon;timestamp;P1;P2;P0
73973;PMS5003;62336;-26.094;27.994;2023-12-07T00:01:55;4;4;
73973;PMS5003;62336;-26.094;27.994;2023-12-07T00:04:20;2;2;
73973;PMS5003;62336;-26.094;27.994;2023-12-07T00:06:45;6;4;
73973;PMS5003;62336;-26.094;27.994;2023-12-07T00:09:11;6;6;
73973;PMS5003;62336;-26.094;27.994;2023-12-07T00:11:37;6;5;
73973;PMS5003;62336;-26.094;27.994;2023-12-07T00:14:02;5;5;
73973;PMS5003;62336;-26.094;27.994;2023-12-07T00:16:28;4;4;
73973;PMS5003;62336;-26.094;27.994;2023-12-07T00:18:54;3;3;
73973;PMS5003;62336;-26.094;27.994;2023-12-07T00:21:19;5;4;
73973;PMS5003;62336;-26.094;27.994;2023-12-07T00:23:46;4;3;
73973;PMS5003;62336;-26.094;27.994;2023-12-07T00:26:10;5;5;
73973;PMS5003;62336;-26.094;27.994;2023-12-07T00:28:36;4;4;
73973;PMS5003;62336;-26.094;27.994;2023-12-07T00:31:03;3;3;
73973;PMS5003;62336;-26.094;27.994;2023-12-07T00:33:27;4;4;
73973;PMS5003;62336;-26.094;27.994;2023-12-07T00:35:53;4;4;
73973;PMS5003;62336;-26.094;27.994;2023-12-07T00:38:19;4;4;
73973;PMS5003;62336;-26.094;27.994;2023-12-07T00:40:45;4;2;
73973;PMS5003;62336;-26.094;27.994;2023-12-07T00:43:11;5;5;
73973;PMS5003;62336;-26.094;27.994;2023-12-07T00:45:37;1;1;
73973;PMS5003;62336;-26.094;27.994;2023-12-07T00:48:03;3;2;
73973;PMS5003;62336;-26.094;27.994;2023-12-07T00:50:28;5;4;
73973;PMS5003;62336;-26.094;27.994;2023-12-07T00:52:54;5;5;
73973;PMS5003;62336;-26.094;27.994;2023-12-07T00:55:20;5;5;
73973;PMS5003;62336;-26.094;27.994;2023-12-07T00:57:46;4;4;
73973;PMS5003;62336;-26.094;27.994;2023-12-07T01:00:13;4;4;
73973;PMS5003;62336;-26.094;27.994;2023-12-07T01:02:38;2;2;
73973;PMS5003;62336;-26.094;27.994;2023-12-07T01:05:04;4;3;
73973;PMS5003;62336;-26.094;27.994;2023-12-07T01:07:29;3;3;
73973;PMS5003;62336;-26.094;27.994;2023-12-07T01:09:54;4;4;
73973;PMS5003;62336;-26.094;27.994;2023-12-07T01:12:20;4;4;
73973;PMS5003;62336;-26.094;27.994;2023-12-07T01:14:46;3;3;
73973;PMS5003;62336;-26.094;27.994;2023-12-07T01:17:12;5;4;
73973;PMS5003;62336;-26.094;27.994;2023-12-07T01:19:38;5;5;
73973;PMS5003;62336;-26.094;27.994;2023-12-07T01:22:04;5;5;
73973;PMS5003;62336;-26.094;27.994;2023-12-07T01:24:30;4;4;
73973;PMS5003;62336;-26.094;27.994;2023-12-07T01:26:55;4;4;
73973;PMS5003;62336;-26.094;27.994;2023-12-07T01:29:21;5;5;
73973;PMS5003;62336;-26.094;27.994;2023-12-07T01:31:47;5;5;
73973;PMS5003;62336;-26.094;27.994;2023-12-07T01:34:12;5;5;
73973;PMS5003;62336;-26.094;27.994;2023-12-07T01:36:38;3;3;
73973;PMS5003;62336;-26.094;27.994;2023-12-07T01:39:05;3;3;
73973;PMS5003;62336;-26.094;27.994;2023-12-07T01:41:30;2;2;
73973;PMS5003;62336;-26.094;27.994;2023-12-07T01:43:56;2;2;
73973;PMS5003;62336;-26.094;27.994;2023-12-07T01:46:21;2;2;
73973;PMS5003;62336;-26.094;27.994;2023-12-07T01:48:47;2;2;
73973;PMS5003;62336;-26.094;27.994;2023-12-07T01:51:13;1;1;
73973;PMS5003;62336;-26.094;27.994;2023-12-07T01:53:39;1;1;
73973;PMS5003;62336;-26.094;27.994;2023-12-07T01:56:05;2;2;
73973;PMS5003;62336;-26.094;27.994;2023-12-07T01:58:31;3;2;
73973;PMS5003;62336;-26.094;27.994;2023-12-07T02:00:56;3;3;
73973;PMS5003;62336;-26.094;27.994;2023-12-07T02:03:22;3;3;
73973;PMS5003;62336;-26.094;27.994;2023-12-07T02:05:48;1;1;
73973;PMS5003;62336;-26.094;27.994;2023-12-07T02:08:14;3;3;
73973;PMS5003;62336;-26.094;27.994;2023-12-07T02:10:40;4;4;
73973;PMS5003;62336;-26.094;27.994;2023-12-07T02:13:06;2;1;
73973;PMS5003;62336;-26.094;27.994;2023-12-07T02:15:31;3;3;
73973;PMS5003;62336;-26.094;27.994;2023-12-07T02:17:58;3;3;
73973;PMS5003;62336;-26.094;27.994;2023-12-07T02:20:25;2;2;
73973;PMS5003;62336;-26.094;27.994;2023-12-07T02:22:49;2;2;
73973;PMS5003;62336;-26.094;27.994;2023-12-07T02:25:15;3;3;
73973;PMS5003;62336;-26.094;27.994;2023-12-07T02:27:41;3;3;
73973;PMS5003;62336;-26.094;27.994;2023-12-07T02:30:07;4;3;
73973;PMS5003;62336;-26.094;27.994;2023-12-07T02:32:33;3;3;
73973;PMS5003;62336;-26.094;27.994;2023-12-07T02:34:58;2;2;
73973;PMS5003;62336;-26.094;27.994;2023-12-07T02:37:24;2;1;
73973;PMS5003;62336;-26.094;27.994;2023-12-07T02:39:50;2;2;
73973;PMS5003;62336;-26.094;27.994;2023-12-07T02:42:16;1;1;
73973;PMS5003;62336;-26.094;27.994;2023-12-07T02:44:42;1;1;
73973;PMS5003;62336;-26.094;27.994;2023-12-07T02:47:07;3;2;
73973;PMS5003;62336;-26.094;27.994;2023-12-07T02:49:33;2;2;
73973;PMS5003;62336;-26.094;27.994;2023-12-07T02:51:59;1;1;
73973;PMS5003;62336;-26.094;27.994;2023-12-07T02:54:25;3;3;
73973;PMS5003;62336;-26.094;27.994;2023-12-07T02:56:51;1;1;
73973;PMS5003;62336;-26.094;27.994;2023-12-07T02:59:17;1;1;
73973;PMS5003;62336;-26.094;27.994;2023-12-07T03:01:43;1;1;
73973;PMS5003;62336;-26.094;27.994;2023-12-07T03:04:09;3;3;
73973;PMS5003;62336;-26.094;27.994;2023-12-07T03:06:34;2;2;
73973;PMS5003;62336;-26.094;27.994;2023-12-07T03:09:00;4;4;
73973;PMS5003;62336;-26.094;27.994;2023-12-07T03:11:26;4;4;
73973;PMS5003;62336;-26.094;27.994;2023-12-07T03:13:52;5;5;
73973;PMS5003;62336;-26.094;27.994;2023-12-07T03:16:18;6;6;
73973;PMS5003;62336;-26.094;27.994;2023-12-07T03:18:44;5;5;
73973;PMS5003;62336;-26.094;27.994;2023-12-07T03:21:10;5;5;
73973;PMS5003;62336;-26.094;27.994;2023-12-07T03:23:35;6;5;
73973;PMS5003;62336;-26.094;27.994;2023-12-07T03:26:01;4;4;
73973;PMS5003;62336;-26.094;27.994;2023-12-07T03:28:26;5;5;
73973;PMS5003;62336;-26.094;27.994;2023-12-07T03:30:52;4;3;
73973;PMS5003;62336;-26.094;27.994;2023-12-07T03:33:18;2;2;
73973;PMS5003;62336;-26.094;27.994;2023-12-07T03:35:44;2;2;
73973;PMS5003;62336;-26.094;27.994;2023-12-07T03:38:10;3;3;
73973;PMS5003;62336;-26.094;27.994;2023-12-07T03:40:35;2;2;
73973;PMS5003;62336;-26.094;27.994;2023-12-07T03:43:01;4;4;
73973;PMS5003;62336;-26.094;27.994;2023-12-07T03:45:27;3;3;
73973;PMS5003;62336;-26.094;27.994;2023-12-07T03:47:53;2;2;
73973;PMS5003;62336;-26.094;27.994;2023-12-07T03:50:19;2;2;
73973;PMS5003;62336;-26.094;27.994;2023-12-07T03:52:45;2;2;
73973;PMS5003;62336;-26.094;27.994;2023-12-07T03:55:11;5;5;
73973;PMS5003;62336;-26.094;27.994;2023-12-07T03:57:37;3;2;
73973;PMS5003;62336;-26.094;27.994;2023-12-07T04:00:02;4;4;
73973;PMS5003;62336;-26.094;27.994;2023-12-07T04:02:28;4;4;
73973;PMS5003;62336;-26.094;27.994;2023-12-07T04:04:54;3;3;
73973;PMS5003;62336;-26.094;27.994;2023-12-07T04:07:20;4;4;
73973;PMS5003;62336;-26.094;27.994;2023-12-07T04:09:47;3;3;
73973;PMS5003;62336;-26.094;27.994;2023-12-07T04:12:12;4;3;
73973;PMS5003;62336;-26.094;27.994;2023-12-07T04:14:37;4;3;
73973;PMS5003;62336;-26.094;27.994;2023-12-07T04:17:03;4;4;
73973;PMS5003;62336;-26.094;27.994;2023-12-07T04:19:29;4;4;
73973;PMS5003;62336;-26.094;27.994;2023-12-07T04:21:55;4;4;
73973;PMS5003;62336;-26.094;27.994;2023-12-07T04:24:21;3;3;
73973;PMS5003;62336;-26.094;27.994;2023-12-07T04:26:47;5;4;
73973;PMS5003;62336;-26.094;27.994;2023-12-07T04:29:12;3;3;
73973;PMS5003;62336;-26.094;27.994;2023-12-07T04:31:38;5;4;
73973;PMS5003;62336;-26.094;27.994;2023-12-07T04:34:04;3;3;
73973;PMS5003;62336;-26.094;27.994;2023-12-07T04:36:29;6;5;
73973;PMS5003;62336;-26.094;27.994;2023-12-07T04:38:55;5;4;
73973;PMS5003;62336;-26.094;27.994;2023-12-07T04:41:21;5;5;
73973;PMS5003;62336;-26.094;27.994;2023-12-07T04:43:47;6;6;
73973;PMS5003;62336;-26.094;27.994;2023-12-07T04:46:13;5;4;
73973;PMS5003;62336;-26.094;27.994;2023-12-07T04:48:39;2;2;
73973;PMS5003;62336;-26.094;27.994;2023-12-07T04:51:05;4;4;
73973;PMS5003;62336;-26.094;27.994;2023-12-07T04:53:30;6;6;
73973;PMS5003;62336;-26.094;27.994;2023-12-07T04:55:56;4;4;
73973;PMS5003;62336;-26.094;27.994;2023-12-07T04:58:22;4;4;
73973;PMS5003;62336;-26.094;27.994;2023-12-07T05:00:48;5;5;
73973;PMS5003;62336;-26.094;27.994;2023-12-07T05:03:14;4;4;
73973;PMS5003;62336;-26.094;27.994;2023-12-07T05:05:40;5;5;
73973;PMS5003;62336;-26.094;27.994;2023-12-07T05:08:06;4;4;
73973;PMS5003;62336;-26.094;27.994;2023-12-07T05:10:31;5;5;
73973;PMS5003;62336;-26.094;27.994;2023-12-07T05:12:57;4;4;
73973;PMS5003;62336;-26.094;27.994;2023-12-07T05:15:23;6;6;
73973;PMS5003;62336;-26.094;27.994;2023-12-07T05:17:49;3;3;
73973;PMS5003;62336;-26.094;27.994;2023-12-07T05:20:14;24;21;
73973;PMS5003;62336;-26.094;27.994;2023-12-07T05:22:40;12;7;
73973;PMS5003;62336;-26.094;27.994;2023-12-07T05:25:05;8;7;
73973;PMS5003;62336;-26.094;27.994;2023-12-07T05:27:31;8;7;
73973;PMS5003;62336;-26.094;27.994;2023-12-07T05:29:57;7;7;
73973;PMS5003;62336;-26.094;27.994;2023-12-07T05:32:23;4;4;
73973;PMS5003;62336;-26.094;27.994;2023-12-07T05:34:49;5;5;
73973;PMS5003;62336;-26.094;27.994;2023-12-07T05:37:15;4;4;
73973;PMS5003;62336;-26.094;27.994;2023-12-07T05:39:40;5;5;
73973;PMS5003;62336;-26.094;27.994;2023-12-07T05:42:06;6;6;
73973;PMS5003;62336;-26.094;27.994;2023-12-07T05:44:32;5;5;
73973;PMS5003;62336;-26.094;27.994;2023-12-07T05:46:58;3;3;
73973;PMS5003;62336;-26.094;27.994;2023-12-07T05:49:24;4;4;
73973;PMS5003;62336;-26.094;27.994;2023-12-07T05:51:50;6;6;
73973;PMS5003;62336;-26.094;27.994;2023-12-07T05:54:15;5;5;
73973;PMS5003;62336;-26.094;27.994;2023-12-07T05:56:41;4;4;
73973;PMS5003;62336;-26.094;27.994;2023-12-07T05:59:07;6;6;
73973;PMS5003;62336;-26.094;27.994;2023-12-07T06:01:33;4;4;
73973;PMS5003;62336;-26.094;27.994;2023-12-07T06:03:59;4;3;
73973;PMS5003;62336;-26.094;27.994;2023-12-07T06:06:25;6;5;
73973;PMS5003;62336;-26.094;27.994;2023-12-07T06:08:50;6;6;
73973;PMS5003;62336;-26.094;27.994;2023-12-07T06:11:17;5;5;
73973;PMS5003;62336;-26.094;27.994;2023-12-07T06:13:42;4;4;
73973;PMS5003;62336;-26.094;27.994;2023-12-07T06:16:11;6;5;
73973;PMS5003;62336;-26.094;27.994;2023-12-07T06:18:34;6;6;
73973;PMS5003;62336;-26.094;27.994;2023-12-07T06:21:00;4;4;
73973;PMS5003;62336;-26.094;27.994;2023-12-07T06:23:26;5;5;
73973;PMS5003;62336;-26.094;27.994;2023-12-07T06:25:51;5;5;
73973;PMS5003;62336;-26.094;27.994;2023-12-07T06:28:17;6;6;
73973;PMS5003;62336;-26.094;27.994;2023-12-07T06:30:43;7;6;
73973;PMS5003;62336;-26.094;27.994;2023-12-07T06:33:09;6;6;
73973;PMS5003;62336;-26.094;27.994;2023-12-07T06:35:34;6;6;
73973;PMS5003;62336;-26.094;27.994;2023-12-07T06:38:00;7;6;
73973;PMS5003;62336;-26.094;27.994;2023-12-07T06:40:25;5;4;
73973;PMS5003;62336;-26.094;27.994;2023-12-07T06:42:50;5;5;
73973;PMS5003;62336;-26.094;27.994;2023-12-07T06:45:15;5;5;
73973;PMS5003;62336;-26.094;27.994;2023-12-07T06:47:40;6;6;
73973;PMS5003;62336;-26.094;27.994;2023-12-07T06:50:06;7;7;
73973;PMS5003;62336;-26.094;27.994;2023-12-07T06:52:31;6;6;
73973;PMS5003;62336;-26.094;27.994;2023-12-07T06:54:57;7;7;
73973;PMS5003;62336;-26.094;27.994;2023-12-07T06:57:23;6;6;
73973;PMS5003;62336;-26.094;27.994;2023-12-07T06:59:49;5;5;
73973;PMS5003;62336;-26.094;27.994;2023-12-07T07:02:15;9;6;
73973;PMS5003;62336;-26.094;27.994;2023-12-07T07:04:41;8;7;
73973;PMS5003;62336;-26.094;27.994;2023-12-07T07:07:06;8;8;
73973;PMS5003;62336;-26.094;27.994;2023-12-07T07:09:32;10;10;
73973;PMS5003;62336;-26.094;27.994;2023-12-07T07:11:57;7;7;
73973;PMS5003;62336;-26.094;27.994;2023-12-07T07:14:23;4;4;
73973;PMS5003;62336;-26.094;27.994;2023-12-07T07:16:48;5;5;
73973;PMS5003;62336;-26.094;27.994;2023-12-07T07:19:14;7;7;
73973;PMS5003;62336;-26.094;27.994;2023-12-07T07:21:40;7;7;
73973;PMS5003;62336;-26.094;27.994;2023-12-07T07:24:06;8;8;
73973;PMS5003;62336;-26.094;27.994;2023-12-07T07:26:32;9;9;
73973;PMS5003;62336;-26.094;27.994;2023-12-07T07:28:57;7;7;
73973;PMS5003;62336;-26.094;27.994;2023-12-07T07:31:22;12;9;
73973;PMS5003;62336;-26.094;27.994;2023-12-07T07:33:47;8;8;
73973;PMS5003;62336;-26.094;27.994;2023-12-07T07:36:12;9;9;
73973;PMS5003;62336;-26.094;27.994;2023-12-07T07:38:37;6;6;
73973;PMS5003;62336;-26.094;27.994;2023-12-07T07:41:02;10;10;
73973;PMS5003;62336;-26.094;27.994;2023-12-07T07:43:27;12;11;
73973;PMS5003;62336;-26.094;27.994;2023-12-07T07:45:52;10;9;
73973;PMS5003;62336;-26.094;27.994;2023-12-07T07:48:18;7;7;
73973;PMS5003;62336;-26.094;27.994;2023-12-07T07:50:42;10;10;
73973;PMS5003;62336;-26.094;27.994;2023-12-07T07:53:08;9;9;
73973;PMS5003;62336;-26.094;27.994;2023-12-07T07:55:33;9;7;
73973;PMS5003;62336;-26.094;27.994;2023-12-07T07:57:59;10;10;
73973;PMS5003;62336;-26.094;27.994;2023-12-07T08:00:25;9;8;
73973;PMS5003;62336;-26.094;27.994;2023-12-07T08:02:49;8;7;
73973;PMS5003;62336;-26.094;27.994;2023-12-07T08:05:14;10;9;
73973;PMS5003;62336;-26.094;27.994;2023-12-07T08:07:40;8;8;
73973;PMS5003;62336;-26.094;27.994;2023-12-07T08:10:06;11;11;
73973;PMS5003;62336;-26.094;27.994;2023-12-07T08:12:32;7;7;
73973;PMS5003;62336;-26.094;27.994;2023-12-07T08:14:56;8;8;
73973;PMS5003;62336;-26.094;27.994;2023-12-07T08:17:22;11;10;
73973;PMS5003;62336;-26.094;27.994;2023-12-07T08:19:47;8;7;
73973;PMS5003;62336;-26.094;27.994;2023-12-07T08:22:12;10;8;
73973;PMS5003;62336;-26.094;27.994;2023-12-07T08:24:38;9;8;
73973;PMS5003;62336;-26.094;27.994;2023-12-07T08:27:02;12;11;
73973;PMS5003;62336;-26.094;27.994;2023-12-07T08:29:27;9;8;
73973;PMS5003;62336;-26.094;27.994;2023-12-07T08:31:52;8;8;
73973;PMS5003;62336;-26.094;27.994;2023-12-07T08:34:17;9;9;
73973;PMS5003;62336;-26.094;27.994;2023-12-07T08:36:42;10;9;
73973;PMS5003;62336;-26.094;27.994;2023-12-07T08:39:07;9;9;
73973;PMS5003;62336;-26.094;27.994;2023-12-07T08:41:32;9;9;
73973;PMS5003;62336;-26.094;27.994;2023-12-07T08:43:57;13;13;
73973;PMS5003;62336;-26.094;27.994;2023-12-07T08:46:22;9;9;
73973;PMS5003;62336;-26.094;27.994;2023-12-07T08:48:48;9;9;
73973;PMS5003;62336;-26.094;27.994;2023-12-07T08:51:13;13;13;
73973;PMS5003;62336;-26.094;27.994;2023-12-07T08:53:38;9;9;
73973;PMS5003;62336;-26.094;27.994;2023-12-07T08:56:03;11;11;
73973;PMS5003;62336;-26.094;27.994;2023-12-07T08:58:28;8;8;
73973;PMS5003;62336;-26.094;27.994;2023-12-07T09:00:53;9;9;
73973;PMS5003;62336;-26.094;27.994;2023-12-07T09:03:19;8;7;
73973;PMS5003;62336;-26.094;27.994;2023-12-07T09:05:45;9;9;
73973;PMS5003;62336;-26.094;27.994;2023-12-07T09:08:11;11;11;
73973;PMS5003;62336;-26.094;27.994;2023-12-07T09:10:35;11;10;
73973;PMS5003;62336;-26.094;27.994;2023-12-07T09:13:01;11;10;
73973;PMS5003;62336;-26.094;27.994;2023-12-07T09:15:26;10;10;
73973;PMS5003;62336;-26.094;27.994;2023-12-07T09:17:51;10;10;
73973;PMS5003;62336;-26.094;27.994;2023-12-07T09:20:16;8;7;
73973;PMS5003;62336;-26.094;27.994;2023-12-07T09:22:42;9;9;
73973;PMS5003;62336;-26.094;27.994;2023-12-07T09:25:07;12;11;
73973;PMS5003;62336;-26.094;27.994;2023-12-07T09:27:31;7;7;
73973;PMS5003;62336;-26.094;27.994;2023-12-07T09:29:56;10;10;
73973;PMS5003;62336;-26.094;27.994;2023-12-07T09:32:22;9;9;
73973;PMS5003;62336;-26.094;27.994;2023-12-07T09:34:48;9;9;
73973;PMS5003;62336;-26.094;27.994;2023-12-07T09:37:13;11;11;
73973;PMS5003;62336;-26.094;27.994;2023-12-07T09:39:38;10;10;
73973;PMS5003;62336;-26.094;27.994;2023-12-07T09:42:04;13;12;
73973;PMS5003;62336;-26.094;27.994;2023-12-07T09:44:29;12;12;
73973;PMS5003;62336;-26.094;27.994;2023-12-07T09:46:54;11;10;
73973;PMS5003;62336;-26.094;27.994;2023-12-07T09:49:19;10;10;
73973;PMS5003;62336;-26.094;27.994;2023-12-07T09:51:45;11;11;
73973;PMS5003;62336;-26.094;27.994;2023-12-07T09:54:09;11;10;
73973;PMS5003;62336;-26.094;27.994;2023-12-07T09:56:34;10;10;
73973;PMS5003;62336;-26.094;27.994;2023-12-07T09:58:59;12;11;
73973;PMS5003;62336;-26.094;27.994;2023-12-07T10:01:28;10;10;
73973;PMS5003;62336;-26.094;27.994;2023-12-07T10:03:51;9;9;
73973;PMS5003;62336;-26.094;27.994;2023-12-07T10:06:15;11;10;
73973;PMS5003;62336;-26.094;27.994;2023-12-07T10:08:40;9;9;
73973;PMS5003;62336;-26.094;27.994;2023-12-07T10:11:05;11;11;
73973;PMS5003;62336;-26.094;27.994;2023-12-07T10:13:30;11;10;
73973;PMS5003;62336;-26.094;27.994;2023-12-07T10:18:23;12;11;
73973;PMS5003;62336;-26.094;27.994;2023-12-07T10:20:46;13;13;
73973;PMS5003;62336;-26.094;27.994;2023-12-07T10:23:11;13;13;
73973;PMS5003;62336;-26.094;27.994;2023-12-07T10:25:37;12;12;
73973;PMS5003;62336;-26.094;27.994;2023-12-07T10:28:01;13;12;
73973;PMS5003;62336;-26.094;27.994;2023-12-07T10:30:26;14;12;
73973;PMS5003;62336;-26.094;27.994;2023-12-07T10:32:52;12;10;
73973;PMS5003;62336;-26.094;27.994;2023-12-07T10:35:19;11;11;
73973;PMS5003;62336;-26.094;27.994;2023-12-07T10:37:44;11;11;
73973;PMS5003;62336;-26.094;27.994;2023-12-07T10:40:10;11;10;
73973;PMS5003;62336;-26.094;27.994;2023-12-07T10:42:35;10;10;
73973;PMS5003;62336;-26.094;27.994;2023-12-07T10:45:01;8;8;
73973;PMS5003;62336;-26.094;27.994;2023-12-07T10:47:25;17;16;
73973;PMS5003;62336;-26.094;27.994;2023-12-07T10:49:52;8;7;
73973;PMS5003;62336;-26.094;27.994;2023-12-07T10:52:15;10;10;
73973;PMS5003;62336;-26.094;27.994;2023-12-07T10:54:41;10;10;
73973;PMS5003;62336;-26.094;27.994;2023-12-07T10:57:06;9;9;
73973;PMS5003;62336;-26.094;27.994;2023-12-07T10:59:30;9;9;
73973;PMS5003;62336;-26.094;27.994;2023-12-07T11:01:56;10;9;
73973;PMS5003;62336;-26.094;27.994;2023-12-07T11:04:20;12;12;
73973;PMS5003;62336;-26.094;27.994;2023-12-07T11:06:46;8;8;
73973;PMS5003;62336;-26.094;27.994;2023-12-07T11:09:17;10;10;
73973;PMS5003;62336;-26.094;27.994;2023-12-07T11:11:36;8;8;
73973;PMS5003;62336;-26.094;27.994;2023-12-07T11:14:02;8;8;
73973;PMS5003;62336;-26.094;27.994;2023-12-07T11:16:29;9;9;
73973;PMS5003;62336;-26.094;27.994;2023-12-07T11:18:51;9;9;
73973;PMS5003;62336;-26.094;27.994;2023-12-07T11:21:16;7;7;
73973;PMS5003;62336;-26.094;27.994;2023-12-07T11:23:41;9;9;
73973;PMS5003;62336;-26.094;27.994;2023-12-07T11:26:07;10;10;
73973;PMS5003;62336;-26.094;27.994;2023-12-07T11:28:36;9;9;
73973;PMS5003;62336;-26.094;27.994;2023-12-07T11:30:57;8;8;
73973;PMS5003;62336;-26.094;27.994;2023-12-07T11:33:22;8;8;
73973;PMS5003;62336;-26.094;27.994;2023-12-07T11:38:13;11;9;
73973;PMS5003;62336;-26.094;27.994;2023-12-07T11:40:37;10;10;
73973;PMS5003;62336;-26.094;27.994;2023-12-07T11:43:02;9;9;
73973;PMS5003;62336;-26.094;27.994;2023-12-07T11:50:17;8;8;
73973;PMS5003;62336;-26.094;27.994;2023-12-07T11:52:42;10;9;
73973;PMS5003;62336;-26.094;27.994;2023-12-07T11:55:07;9;9;
73973;PMS5003;62336;-26.094;27.994;2023-12-07T11:57:32;9;9;
73973;PMS5003;62336;-26.094;27.994;2023-12-07T11:59:57;10;10;
73973;PMS5003;62336;-26.094;27.994;2023-12-07T12:02:22;8;8;
73973;PMS5003;62336;-26.094;27.994;2023-12-07T12:04:47;9;9;
73973;PMS5003;62336;-26.094;27.994;2023-12-07T12:07:13;8;8;
73973;PMS5003;62336;-26.094;27.994;2023-12-07T12:09:38;7;7;
73973;PMS5003;62336;-26.094;27.994;2023-12-07T12:12:03;12;11;
73973;PMS5003;62336;-26.094;27.994;2023-12-07T12:14:28;11;11;
73973;PMS5003;62336;-26.094;27.994;2023-12-07T12:16:53;11;10;
73973;PMS5003;62336;-26.094;27.994;2023-12-07T12:19:18;8;8;
73973;PMS5003;62336;-26.094;27.994;2023-12-07T12:21:43;12;11;
73973;PMS5003;62336;-26.094;27.994;2023-12-07T12:24:08;11;10;
73973;PMS5003;62336;-26.094;27.994;2023-12-07T12:26:34;9;9;
73973;PMS5003;62336;-26.094;27.994;2023-12-07T12:28:58;10;9;
73973;PMS5003;62336;-26.094;27.994;2023-12-07T12:31:23;12;11;
73973;PMS5003;62336;-26.094;27.994;2023-12-07T12:33:48;8;8;
73973;PMS5003;62336;-26.094;27.994;2023-12-07T12:36:13;10;9;
73973;PMS5003;62336;-26.094;27.994;2023-12-07T12:38:39;10;10;
73973;PMS5003;62336;-26.094;27.994;2023-12-07T12:41:04;11;11;
73973;PMS5003;62336;-26.094;27.994;2023-12-07T12:43:29;11;11;
73973;PMS5003;62336;-26.094;27.994;2023-12-07T12:45:54;10;10;
73973;PMS5003;62336;-26.094;27.994;2023-12-07T12:48:20;10;10;
73973;PMS5003;62336;-26.094;27.994;2023-12-07T12:50:45;8;8;
73973;PMS5003;62336;-26.094;27.994;2023-12-07T12:53:11;11;10;
73973;PMS5003;62336;-26.094;27.994;2023-12-07T12:55:36;9;9;
73973;PMS5003;62336;-26.094;27.994;2023-12-07T12:58:00;7;7;
73973;PMS5003;62336;-26.094;27.994;2023-12-07T13:00:26;9;9;
73973;PMS5003;62336;-26.094;27.994;2023-12-07T13:02:51;7;7;
73973;PMS5003;62336;-26.094;27.994;2023-12-07T13:05:16;10;9;
73973;PMS5003;62336;-26.094;27.994;2023-12-07T13:07:41;10;10;
73973;PMS5003;62336;-26.094;27.994;2023-12-07T13:10:06;7;7;
73973;PMS5003;62336;-26.094;27.994;2023-12-07T13:12:31;11;10;
73973;PMS5003;62336;-26.094;27.994;2023-12-07T13:14:56;13;13;
73973;PMS5003;62336;-26.094;27.994;2023-12-07T13:17:21;9;9;
73973;PMS5003;62336;-26.094;27.994;2023-12-07T13:19:46;21;19;
73973;PMS5003;62336;-26.094;27.994;2023-12-07T13:22:11;16;14;
73973;PMS5003;62336;-26.094;27.994;2023-12-07T13:24:37;10;9;
73973;PMS5003;62336;-26.094;27.994;2023-12-07T13:27:02;10;10;
73973;PMS5003;62336;-26.094;27.994;2023-12-07T13:29:27;11;11;
73973;PMS5003;62336;-26.094;27.994;2023-12-07T13:31:52;10;10;
73973;PMS5003;62336;-26.094;27.994;2023-12-07T13:34:18;9;9;
73973;PMS5003;62336;-26.094;27.994;2023-12-07T13:36:43;9;9;
73973;PMS5003;62336;-26.094;27.994;2023-12-07T13:39:08;14;14;
73973;PMS5003;62336;-26.094;27.994;2023-12-07T13:41:33;9;9;
73973;PMS5003;62336;-26.094;27.994;2023-12-07T13:43:58;10;9;
73973;PMS5003;62336;-26.094;27.994;2023-12-07T13:46:23;8;8;
73973;PMS5003;62336;-26.094;27.994;2023-12-07T13:48:48;9;9;
73973;PMS5003;62336;-26.094;27.994;2023-12-07T13:51:14;9;9;
73973;PMS5003;62336;-26.094;27.994;2023-12-07T13:53:38;9;9;
73973;PMS5003;62336;-26.094;27.994;2023-12-07T13:56:04;10;9;
73973;PMS5003;62336;-26.094;27.994;2023-12-07T13:58:28;11;10;
73973;PMS5003;62336;-26.094;27.994;2023-12-07T14:00:53;10;9;
73973;PMS5003;62336;-26.094;27.994;2023-12-07T14:03:19;9;9;
73973;PMS5003;62336;-26.094;27.994;2023-12-07T14:05:44;10;9;
73973;PMS5003;62336;-26.094;27.994;2023-12-07T14:08:08;10;10;
73973;PMS5003;62336;-26.094;27.994;2023-12-07T14:10:34;10;9;
73973;PMS5003;62336;-26.094;27.994;2023-12-07T14:13:00;10;9;
73973;PMS5003;62336;-26.094;27.994;2023-12-07T14:15:25;8;8;
73973;PMS5003;62336;-26.094;27.994;2023-12-07T14:17:50;11;9;
73973;PMS5003;62336;-26.094;27.994;2023-12-07T14:20:15;12;10;
73973;PMS5003;62336;-26.094;27.994;2023-12-07T14:22:40;9;9;
73973;PMS5003;62336;-26.094;27.994;2023-12-07T14:25:06;8;8;
73973;PMS5003;62336;-26.094;27.994;2023-12-07T14:27:31;8;8;
73973;PMS5003;62336;-26.094;27.994;2023-12-07T14:29:56;9;9;
73973;PMS5003;62336;-26.094;27.994;2023-12-07T14:32:21;10;10;
73973;PMS5003;62336;-26.094;27.994;2023-12-07T14:34:46;8;8;
73973;PMS5003;62336;-26.094;27.994;2023-12-07T14:37:14;10;10;
73973;PMS5003;62336;-26.094;27.994;2023-12-07T14:39:36;8;8;
73973;PMS5003;62336;-26.094;27.994;2023-12-07T14:42:01;10;10;
73973;PMS5003;62336;-26.094;27.994;2023-12-07T14:44:26;12;12;
73973;PMS5003;62336;-26.094;27.994;2023-12-07T14:46:52;10;10;
73973;PMS5003;62336;-26.094;27.994;2023-12-07T14:49:17;11;11;
73973;PMS5003;62336;-26.094;27.994;2023-12-07T14:51:42;9;9;
73973;PMS5003;62336;-26.094;27.994;2023-12-07T14:54:07;13;13;
73973;PMS5003;62336;-26.094;27.994;2023-12-07T14:56:32;9;9;
73973;PMS5003;62336;-26.094;27.994;2023-12-07T14:58:57;10;10;
73973;PMS5003;62336;-26.094;27.994;2023-12-07T15:01:22;11;10;
73973;PMS5003;62336;-26.094;27.994;2023-12-07T15:03:48;9;9;
73973;PMS5003;62336;-26.094;27.994;2023-12-07T15:06:14;9;9;
73973;PMS5003;62336;-26.094;27.994;2023-12-07T15:08:38;9;9;
73973;PMS5003;62336;-26.094;27.994;2023-12-07T15:11:04;10;10;
73973;PMS5003;62336;-26.094;27.994;2023-12-07T15:13:29;10;10;
73973;PMS5003;62336;-26.094;27.994;2023-12-07T15:15:54;9;9;
73973;PMS5003;62336;-26.094;27.994;2023-12-07T15:18:19;10;8;
73973;PMS5003;62336;-26.094;27.994;2023-12-07T15:20:44;8;8;
73973;PMS5003;62336;-26.094;27.994;2023-12-07T15:23:09;11;10;
73973;PMS5003;62336;-26.094;27.994;2023-12-07T15:25:35;9;9;
73973;PMS5003;62336;-26.094;27.994;2023-12-07T15:28:01;10;9;
73973;PMS5003;62336;-26.094;27.994;2023-12-07T15:30:25;10;10;
73973;PMS5003;62336;-26.094;27.994;2023-12-07T15:32:51;10;10;
73973;PMS5003;62336;-26.094;27.994;2023-12-07T15:35:17;10;10;
73973;PMS5003;62336;-26.094;27.994;2023-12-07T15:37:42;14;13;
73973;PMS5003;62336;-26.094;27.994;2023-12-07T15:40:08;11;11;
73973;PMS5003;62336;-26.094;27.994;2023-12-07T15:42:32;11;10;
73973;PMS5003;62336;-26.094;27.994;2023-12-07T15:44:57;10;10;
73973;PMS5003;62336;-26.094;27.994;2023-12-07T15:47:23;13;12;
73973;PMS5003;62336;-26.094;27.994;2023-12-07T15:49:47;9;9;
73973;PMS5003;62336;-26.094;27.994;2023-12-07T15:52:13;11;9;
73973;PMS5003;62336;-26.094;27.994;2023-12-07T15:54:38;13;11;
73973;PMS5003;62336;-26.094;27.994;2023-12-07T15:57:03;14;12;
73973;PMS5003;62336;-26.094;27.994;2023-12-07T15:59:29;14;14;
73973;PMS5003;62336;-26.094;27.994;2023-12-07T16:01:55;12;12;
73973;PMS5003;62336;-26.094;27.994;2023-12-07T16:04:20;13;13;
73973;PMS5003;62336;-26.094;27.994;2023-12-07T16:06:44;9;9;